createdAt,value
2018-09-02T00:04:58.374Z,18.03
2018-09-02T00:10:00.589Z,18.09
2018-09-02T00:15:02.710Z,18.03
2018-09-02T00:20:04.887Z,18.00
2018-09-02T00:25:07.055Z,17.88
2018-09-02T00:30:09.294Z,17.79
2018-09-02T00:35:11.451Z,17.72
2018-09-02T00:40:13.526Z,17.64
2018-09-02T00:45:15.670Z,17.61
2018-09-02T00:50:17.790Z,17.46
2018-09-02T00:55:19.901Z,17.43
2018-09-02T01:00:22.049Z,17.31
2018-09-02T01:05:24.198Z,17.26
2018-09-02T01:10:26.518Z,17.21
2018-09-02T01:15:28.653Z,17.19
2018-09-02T01:20:30.827Z,17.11
2018-09-02T01:25:32.985Z,17.01
2018-09-02T01:30:35.142Z,16.96
2018-09-02T01:35:37.309Z,16.98
2018-09-02T01:40:39.473Z,16.91
2018-09-02T01:45:41.590Z,16.90
2018-09-02T01:50:43.693Z,16.86
2018-09-02T01:55:45.805Z,16.92
2018-09-02T02:00:47.951Z,16.81
2018-09-02T02:05:50.087Z,16.74
2018-09-02T02:10:52.206Z,16.70
2018-09-02T02:15:54.555Z,16.65
2018-09-02T02:20:56.661Z,16.62
2018-09-02T02:25:58.816Z,16.56
2018-09-02T02:31:00.939Z,16.56
2018-09-02T02:36:03.051Z,16.52
2018-09-02T02:41:05.199Z,16.50
2018-09-02T02:46:07.369Z,16.44
2018-09-02T02:51:09.506Z,16.41
2018-09-02T02:56:11.647Z,16.41
2018-09-02T03:01:13.768Z,16.37
2018-09-02T03:06:15.880Z,16.30
2018-09-02T03:11:17.983Z,16.26
2018-09-02T03:16:20.125Z,16.26
2018-09-02T03:21:22.253Z,16.23
2018-09-02T03:26:24.410Z,16.18
2018-09-02T03:31:26.492Z,16.13
2018-09-02T03:36:28.620Z,16.13
2018-09-02T03:41:31.388Z,16.08
2018-09-02T03:46:33.487Z,16.01
2018-09-02T03:51:35.567Z,15.98
2018-09-02T03:56:37.699Z,16.00
2018-09-02T04:01:39.829Z,16.00
2018-09-02T04:06:41.976Z,15.93
2018-09-02T04:11:44.090Z,15.96
2018-09-02T04:16:46.175Z,15.90
2018-09-02T04:21:48.290Z,15.80
2018-09-02T04:26:50.446Z,15.76
2018-09-02T04:31:52.586Z,15.79
2018-09-02T04:36:54.676Z,15.72
2018-09-02T04:41:56.828Z,15.72
2018-09-02T04:46:58.966Z,15.70
2018-09-02T04:52:01.217Z,15.74
2018-09-02T04:57:03.368Z,15.76
2018-09-02T05:02:05.526Z,15.74
2018-09-02T05:07:07.663Z,15.83
2018-09-02T05:12:09.767Z,15.87
2018-09-02T05:17:11.851Z,16.00
2018-09-02T05:22:14.003Z,16.13
2018-09-02T05:27:16.499Z,16.23
2018-09-02T05:32:18.705Z,16.34
2018-09-02T05:37:20.807Z,16.31
2018-09-02T05:42:22.931Z,16.39
2018-09-02T05:47:25.031Z,16.47
2018-09-02T05:52:27.176Z,16.55
2018-09-02T05:57:29.489Z,16.64
2018-09-02T06:02:31.582Z,16.76
2018-09-02T06:07:34.198Z,16.95
2018-09-02T06:12:36.352Z,17.08
2018-09-02T06:17:38.459Z,17.13
2018-09-02T06:22:40.614Z,17.21
2018-09-02T06:27:42.774Z,17.41
2018-09-02T06:32:45.004Z,17.55
2018-09-02T06:37:47.114Z,17.66
2018-09-02T06:42:49.245Z,17.80
2018-09-02T06:47:51.429Z,17.96
2018-09-02T06:52:53.550Z,18.14
2018-09-02T06:57:55.690Z,18.32
2018-09-02T07:02:57.880Z,18.48
2018-09-02T07:07:59.994Z,18.62
2018-09-02T07:13:02.814Z,18.70
2018-09-02T07:18:05.233Z,18.80
2018-09-02T07:23:07.394Z,18.92
2018-09-02T07:28:09.582Z,19.04
2018-09-02T07:33:11.920Z,19.15
2018-09-02T07:38:14.082Z,19.21
2018-09-02T07:43:16.295Z,19.16
2018-09-02T07:48:18.472Z,19.07
2018-09-02T07:53:20.633Z,19.03
2018-09-02T07:58:22.831Z,19.06
2018-09-02T08:03:24.998Z,19.24
2018-09-02T08:08:27.190Z,19.24
2018-09-02T08:13:29.341Z,19.53
2018-09-02T08:18:31.463Z,19.71
2018-09-02T08:23:33.657Z,19.53
2018-09-02T08:28:35.878Z,19.40
2018-09-02T08:33:38.196Z,19.34
2018-09-02T08:38:40.408Z,19.30
2018-09-02T08:43:42.552Z,19.54
2018-09-02T08:48:44.730Z,19.80
2018-09-02T08:53:46.877Z,19.83
2018-09-02T08:58:49.077Z,19.63
2018-09-02T09:03:51.319Z,19.59
2018-09-02T09:08:53.997Z,19.69
2018-09-02T09:13:55.992Z,19.92
2018-09-02T09:18:58.180Z,20.31
2018-09-02T09:24:00.364Z,20.38
2018-09-02T09:29:02.741Z,20.21
2018-09-02T09:34:04.959Z,20.16
2018-09-02T09:39:08.059Z,20.19
2018-09-02T09:44:10.230Z,20.50
2018-09-02T09:49:12.423Z,20.74
2018-09-02T09:54:14.604Z,20.93
2018-09-02T09:59:16.780Z,21.05
2018-09-02T10:04:18.945Z,21.05
2018-09-02T10:09:21.108Z,20.97
2018-09-02T10:14:23.963Z,20.98
2018-09-02T10:19:26.095Z,20.87
2018-09-02T10:24:28.278Z,21.02
2018-09-02T10:29:30.471Z,20.90
2018-09-02T10:34:32.658Z,20.86
2018-09-02T10:39:34.814Z,20.80
2018-09-02T10:44:36.979Z,21.37
2018-09-02T10:49:39.283Z,21.64
2018-09-02T10:54:41.461Z,21.66
2018-09-02T10:59:43.612Z,21.84
2018-09-02T11:04:45.748Z,22.33
2018-09-02T11:09:47.937Z,22.56
2018-09-02T11:14:50.111Z,22.10
2018-09-02T11:19:52.239Z,22.50
2018-09-02T11:24:54.376Z,23.15
2018-09-02T11:29:56.534Z,23.55
2018-09-02T11:34:59.046Z,23.92
2018-09-02T11:40:01.369Z,24.31
2018-09-02T11:45:03.672Z,23.85
2018-09-02T11:50:05.860Z,23.80
2018-09-02T11:55:08.953Z,23.35
2018-09-02T12:00:11.159Z,21.92
2018-09-02T12:05:13.372Z,24.28
2018-09-02T12:10:15.526Z,24.84
2018-09-02T12:15:17.741Z,25.26
2018-09-02T12:20:19.996Z,25.76
2018-09-02T12:25:22.178Z,26.19
2018-09-02T12:30:24.412Z,26.73
2018-09-02T12:35:26.605Z,27.00
2018-09-02T12:40:28.722Z,27.47
2018-09-02T12:45:30.998Z,27.54
2018-09-02T12:50:33.186Z,27.85
2018-09-02T12:55:35.422Z,27.03
2018-09-02T13:00:37.623Z,27.47
2018-09-02T13:05:39.983Z,27.40
2018-09-02T13:10:42.250Z,27.19
2018-09-02T13:15:44.487Z,27.54
2018-09-02T13:20:46.670Z,27.86
2018-09-02T13:25:48.899Z,28.07
2018-09-02T13:30:51.110Z,26.86
2018-09-02T13:35:53.287Z,26.52
2018-09-02T13:40:55.479Z,27.31
2018-09-02T13:45:57.663Z,27.13
2018-09-02T13:50:59.838Z,26.37
2018-09-02T13:56:02.036Z,26.07
2018-09-02T14:01:04.325Z,25.62
2018-09-02T14:06:06.510Z,26.47
2018-09-02T14:11:08.776Z,27.23
2018-09-02T14:16:10.943Z,26.33
2018-09-02T14:21:13.168Z,25.74
2018-09-02T14:26:15.410Z,26.03
2018-09-02T14:31:17.660Z,26.43
2018-09-02T14:36:19.882Z,27.58
2018-09-02T14:41:22.020Z,27.33
2018-09-02T14:46:24.190Z,27.66
2018-09-02T14:51:26.344Z,28.33
2018-09-02T14:56:28.510Z,27.78
2018-09-02T15:01:30.763Z,27.55
2018-09-02T15:06:33.302Z,26.88
2018-09-02T15:11:35.728Z,27.04
2018-09-02T15:16:37.937Z,27.00
2018-09-02T15:21:40.170Z,28.12
2018-09-02T15:26:42.368Z,28.19
2018-09-02T15:31:44.636Z,26.81
2018-09-02T15:36:46.840Z,26.12
2018-09-02T15:41:49.053Z,27.42
2018-09-02T15:46:51.277Z,27.97
2018-09-02T15:51:53.463Z,28.43
2018-09-02T15:56:55.663Z,28.25
2018-09-02T16:01:57.896Z,27.53
2018-09-02T16:07:00.548Z,27.57
2018-09-02T16:12:02.738Z,27.25
2018-09-02T16:17:04.944Z,26.93
2018-09-02T16:22:07.125Z,27.21
2018-09-02T16:27:09.345Z,26.91
2018-09-02T16:32:11.608Z,25.78
2018-09-02T16:37:13.803Z,25.02
2018-09-02T16:42:16.075Z,24.47
2018-09-02T16:47:18.633Z,23.98
2018-09-02T16:52:20.891Z,23.73
2018-09-02T16:57:23.074Z,23.38
2018-09-02T17:02:25.369Z,23.25
2018-09-02T17:07:27.769Z,23.15
2018-09-02T17:12:30.167Z,23.13
2018-09-02T17:17:32.271Z,23.02
2018-09-02T17:22:35.015Z,22.88
2018-09-02T17:27:37.175Z,22.72
2018-09-02T17:32:39.495Z,22.59
2018-09-02T17:37:41.668Z,22.53
2018-09-02T17:42:43.932Z,22.45
2018-09-02T17:47:46.149Z,22.37
2018-09-02T17:52:48.423Z,22.41
2018-09-02T17:57:50.741Z,22.40
2018-09-02T18:02:53.040Z,22.36
2018-09-02T18:07:55.405Z,22.27
2018-09-02T18:12:57.917Z,22.19
2018-09-02T18:18:00.177Z,22.15
2018-09-02T18:23:02.476Z,22.13
2018-09-02T18:28:07.121Z,22.03
2018-09-02T18:33:09.420Z,22.00
2018-09-02T18:38:11.700Z,21.96
2018-09-02T18:43:14.133Z,21.93
2018-09-02T18:48:16.469Z,21.90
2018-09-02T18:53:18.759Z,21.88
2018-09-02T18:58:21.077Z,21.87
2018-09-02T19:03:23.409Z,21.86
2018-09-02T19:08:25.699Z,21.78
2018-09-02T19:13:28.072Z,21.67
2018-09-02T19:18:30.394Z,21.68
2018-09-02T19:23:32.795Z,21.68
2018-09-02T19:28:35.093Z,21.66
2018-09-02T19:33:37.492Z,21.55
2018-09-02T19:38:40.091Z,21.45
2018-09-02T19:43:43.044Z,21.44
2018-09-02T19:48:45.367Z,21.44
2018-09-02T19:53:47.681Z,21.41
2018-09-02T19:58:49.972Z,21.30
2018-09-02T20:03:52.387Z,21.37
2018-09-02T20:08:54.640Z,21.31
2018-09-02T20:13:56.946Z,21.20
2018-09-02T20:18:59.230Z,21.11
2018-09-02T20:24:01.724Z,21.10
2018-09-02T20:29:03.923Z,21.21
2018-09-02T20:34:06.155Z,21.27
2018-09-02T20:39:08.629Z,21.25
2018-09-02T20:44:10.845Z,21.24
2018-09-02T20:49:13.623Z,21.20
2018-09-02T20:54:15.773Z,21.07
2018-09-02T20:59:18.010Z,21.02
2018-09-02T21:04:20.273Z,20.99
2018-09-02T21:09:22.483Z,20.85
2018-09-02T21:14:24.866Z,20.67
2018-09-02T21:19:27.046Z,20.60
2018-09-02T21:24:29.233Z,20.49
2018-09-02T21:29:31.355Z,20.45
2018-09-02T21:34:33.543Z,20.38
2018-09-02T21:39:35.914Z,20.39
2018-09-02T21:44:38.452Z,20.32
2018-09-02T21:49:40.667Z,20.33
2018-09-02T21:54:43.118Z,20.29
2018-09-02T21:59:45.298Z,20.30
2018-09-02T22:04:47.583Z,20.24
2018-09-02T22:09:49.719Z,20.21
2018-09-02T22:14:51.869Z,20.21
2018-09-02T22:19:54.067Z,20.16
2018-09-02T22:24:56.177Z,20.16
2018-09-02T22:29:58.311Z,20.29
2018-09-02T22:35:00.453Z,20.49
2018-09-02T22:40:03.044Z,20.43
2018-09-02T22:45:05.223Z,20.29
2018-09-02T22:50:07.469Z,20.18
2018-09-02T22:55:09.655Z,20.16
2018-09-02T23:00:11.839Z,20.12
2018-09-02T23:05:13.956Z,20.08
2018-09-02T23:10:16.181Z,20.09
2018-09-02T23:15:18.310Z,20.06
2018-09-02T23:20:20.881Z,20.02
2018-09-02T23:25:23.046Z,20.03
2018-09-02T23:30:25.178Z,19.99
2018-09-02T23:35:27.325Z,19.97
2018-09-02T23:40:29.481Z,19.96
2018-09-02T23:45:32.057Z,19.96
2018-09-02T23:50:34.215Z,20.01
2018-09-02T23:55:36.575Z,19.97
